createdAt,value
2019-03-31T00:04:08.360Z,80.50
2019-03-31T00:09:11.833Z,79.60
2019-03-31T00:14:16.435Z,78.90
2019-03-31T00:19:19.669Z,79.10
2019-03-31T00:24:23.998Z,77.50
2019-03-31T00:29:28.476Z,86.90
2019-03-31T00:34:33.126Z,85.10
2019-03-31T00:39:36.546Z,82.30
2019-03-31T00:44:41.381Z,79.50
2019-03-31T00:49:45.750Z,80.40
2019-03-31T00:54:50.531Z,79.50
2019-03-31T00:59:53.715Z,78.70
2019-03-31T01:04:58.130Z,81.90
2019-03-31T01:10:03.015Z,79.00
2019-03-31T01:15:11.475Z,79.50
2019-03-31T01:20:15.850Z,80.40
2019-03-31T01:25:20.234Z,80.50
2019-03-31T01:30:25.027Z,78.70
2019-03-31T01:35:30.315Z,77.90
2019-03-31T01:40:34.943Z,78.30
2019-03-31T01:45:38.542Z,77.50
2019-03-31T01:50:42.854Z,77.30
2019-03-31T01:55:47.199Z,77.90
2019-03-31T02:00:56.112Z,80.90
2019-03-31T02:06:00.412Z,80.00
2019-03-31T02:11:05.333Z,80.60
2019-03-31T02:16:10.272Z,77.20
2019-03-31T02:21:14.887Z,78.20
2019-03-31T02:26:18.176Z,77.70
2019-03-31T02:31:22.547Z,76.70
2019-03-31T02:36:27.889Z,77.60
2019-03-31T02:41:32.898Z,78.70
2019-03-31T02:46:37.283Z,78.30
2019-03-31T02:51:41.600Z,80.40
2019-03-31T02:56:46.199Z,77.90
2019-03-31T03:01:49.406Z,79.60
2019-03-31T03:06:54.253Z,77.80
2019-03-31T03:11:58.669Z,83.30
2019-03-31T03:17:03.302Z,85.40
2019-03-31T03:22:07.670Z,84.00
2019-03-31T03:27:12.402Z,84.80
2019-03-31T03:32:17.099Z,80.30
2019-03-31T03:37:20.291Z,78.90
2019-03-31T03:42:24.632Z,79.80
2019-03-31T03:47:29.087Z,80.50
2019-03-31T03:52:33.720Z,85.90
2019-03-31T03:57:37.250Z,87.40
2019-03-31T04:02:42.700Z,88.50
2019-03-31T04:07:47.258Z,83.40
2019-03-31T04:12:51.862Z,82.80
2019-03-31T04:17:55.128Z,81.60
2019-03-31T04:22:59.362Z,81.10
2019-03-31T04:28:04.207Z,82.40
2019-03-31T04:33:08.941Z,88.80
2019-03-31T04:38:13.306Z,87.50
2019-03-31T04:43:18.466Z,82.00
2019-03-31T04:48:22.980Z,81.40
2019-03-31T04:53:27.240Z,82.10
2019-03-31T04:58:31.890Z,80.90
2019-03-31T05:03:35.065Z,80.60
2019-03-31T05:08:39.366Z,82.00
2019-03-31T05:13:43.914Z,82.50
2019-03-31T05:18:48.750Z,82.60
2019-03-31T05:23:53.032Z,89.80
2019-03-31T05:28:57.466Z,85.80
2019-03-31T05:34:02.190Z,84.20
2019-03-31T05:39:06.262Z,90.30
2019-03-31T05:44:11.083Z,90.90
2019-03-31T05:49:15.835Z,89.50
2019-03-31T05:54:20.439Z,86.50
2019-03-31T05:59:23.912Z,90.00
2019-03-31T06:04:33.316Z,89.70
2019-03-31T06:09:34.647Z,87.40
2019-03-31T06:14:37.904Z,89.00
2019-03-31T06:19:42.234Z,89.20
2019-03-31T06:24:46.612Z,88.20
2019-03-31T06:29:50.996Z,87.80
2019-03-31T06:34:55.434Z,88.20
2019-03-31T06:40:00.426Z,87.70
2019-03-31T06:45:05.352Z,87.60
2019-03-31T06:50:09.961Z,88.20
2019-03-31T06:55:14.267Z,88.60
2019-03-31T07:00:18.964Z,87.50
2019-03-31T07:05:22.131Z,87.90
2019-03-31T07:10:27.471Z,86.80
2019-03-31T07:15:32.005Z,87.10
2019-03-31T07:20:36.653Z,88.20
2019-03-31T07:25:40.178Z,87.90
2019-03-31T07:30:44.483Z,87.30
2019-03-31T07:35:49.101Z,85.30
2019-03-31T07:40:54.019Z,86.00
2019-03-31T07:45:58.748Z,84.80
2019-03-31T07:51:03.391Z,84.40
2019-03-31T07:56:07.719Z,82.90
2019-03-31T08:01:12.018Z,80.80
2019-03-31T08:06:16.297Z,80.60
2019-03-31T08:11:21.168Z,78.30
2019-03-31T08:16:25.884Z,72.80
2019-03-31T08:21:31.561Z,69.30
2019-03-31T08:26:35.821Z,64.60
2019-03-31T08:31:40.829Z,65.10
2019-03-31T08:36:45.243Z,66.00
2019-03-31T08:41:49.554Z,65.30
2019-03-31T08:46:54.335Z,69.10
2019-03-31T08:51:57.535Z,70.60
2019-03-31T08:57:02.310Z,71.90
2019-03-31T09:02:26.028Z,72.80
2019-03-31T09:07:30.348Z,73.30
2019-03-31T09:12:34.972Z,74.20
2019-03-31T09:17:40.033Z,74.00
2019-03-31T09:22:44.318Z,74.50
2019-03-31T09:27:48.910Z,73.00
2019-03-31T09:32:53.597Z,74.50
2019-03-31T09:37:58.322Z,72.50
2019-03-31T09:43:02.671Z,68.90
2019-03-31T09:48:07.267Z,67.40
2019-03-31T09:53:12.778Z,66.70
2019-03-31T09:58:17.807Z,66.50
2019-03-31T10:03:25.698Z,67.00
2019-03-31T10:08:30.128Z,68.50
2019-03-31T10:13:34.403Z,66.70
2019-03-31T10:18:38.731Z,67.50
2019-03-31T10:23:43.063Z,66.90
2019-03-31T10:28:47.389Z,67.50
2019-03-31T10:33:52.003Z,65.40
2019-03-31T10:38:56.426Z,62.90
2019-03-31T10:44:06.373Z,64.30
2019-03-31T10:49:10.720Z,65.60
2019-03-31T10:54:15.318Z,65.80
2019-03-31T10:59:19.623Z,66.10
2019-03-31T11:04:23.944Z,66.30
2019-03-31T11:09:28.602Z,67.10
2019-03-31T11:14:32.864Z,64.70
2019-03-31T11:19:37.499Z,63.90
2019-03-31T11:24:41.801Z,63.30
2019-03-31T11:29:46.192Z,63.90
2019-03-31T11:34:50.829Z,63.40
2019-03-31T11:39:55.606Z,63.00
2019-03-31T11:44:58.835Z,62.00
2019-03-31T11:50:03.233Z,62.00
2019-03-31T11:55:07.816Z,62.40
2019-03-31T12:00:15.301Z,61.90
2019-03-31T12:05:19.604Z,59.80
2019-03-31T12:10:24.028Z,60.70
2019-03-31T12:15:28.572Z,61.90
2019-03-31T12:20:34.041Z,61.20
2019-03-31T12:25:38.322Z,61.70
2019-03-31T12:30:45.614Z,63.40
2019-03-31T12:35:50.442Z,63.30
2019-03-31T12:40:53.779Z,62.90
2019-03-31T12:45:58.348Z,63.10
2019-03-31T12:51:02.662Z,63.50
2019-03-31T12:56:07.192Z,64.40
2019-03-31T13:01:11.519Z,61.90
2019-03-31T13:06:15.839Z,62.90
2019-03-31T13:11:21.788Z,62.00
2019-03-31T13:16:26.697Z,60.90
2019-03-31T13:21:31.048Z,60.70
2019-03-31T13:26:35.446Z,59.20
2019-03-31T13:31:39.729Z,60.40
2019-03-31T13:36:44.186Z,59.50
2019-03-31T13:41:49.117Z,58.80
2019-03-31T13:46:53.475Z,60.70
2019-03-31T13:51:58.418Z,60.30
2019-03-31T13:57:02.984Z,58.80
2019-03-31T14:02:12.178Z,60.40
2019-03-31T14:07:16.899Z,59.80
2019-03-31T14:12:21.586Z,61.30
2019-03-31T14:17:26.130Z,60.10
2019-03-31T14:22:30.728Z,58.60
2019-03-31T14:27:35.288Z,60.10
2019-03-31T14:32:39.598Z,61.80
2019-03-31T14:37:44.148Z,59.70
2019-03-31T14:42:48.486Z,59.60
2019-03-31T14:47:52.778Z,60.10
2019-03-31T14:52:57.068Z,60.50
2019-03-31T14:58:01.682Z,62.00
2019-03-31T15:03:05.977Z,60.90
2019-03-31T15:08:10.519Z,61.20
2019-03-31T15:13:14.904Z,58.70
2019-03-31T15:18:19.506Z,58.60
2019-03-31T15:23:28.827Z,57.60
2019-03-31T15:28:30.075Z,57.50
2019-03-31T15:33:34.636Z,58.70
2019-03-31T15:38:39.011Z,56.50
2019-03-31T15:43:43.374Z,58.20
2019-03-31T15:48:47.991Z,56.60
2019-03-31T15:53:52.694Z,55.10
2019-03-31T15:58:55.932Z,57.90
2019-03-31T16:04:00.486Z,57.00
2019-03-31T16:09:05.794Z,55.50
2019-03-31T16:14:09.906Z,55.80
2019-03-31T16:19:14.042Z,55.80
2019-03-31T16:24:20.671Z,56.50
2019-03-31T16:29:33.173Z,57.70
2019-03-31T16:34:37.291Z,57.00
2019-03-31T16:39:41.244Z,57.20
2019-03-31T16:44:57.516Z,56.90
2019-03-31T16:49:50.574Z,56.40
2019-03-31T16:54:54.584Z,56.50
2019-03-31T16:59:58.653Z,58.10
2019-03-31T17:05:02.403Z,57.20
2019-03-31T17:10:06.868Z,58.50
2019-03-31T17:15:10.782Z,58.30
2019-03-31T17:20:14.820Z,58.10
2019-03-31T17:25:18.809Z,58.10
2019-03-31T17:30:23.082Z,58.10
2019-03-31T17:35:26.828Z,58.60
2019-03-31T17:40:30.616Z,58.70
2019-03-31T17:45:35.445Z,59.10
2019-03-31T17:50:39.203Z,59.60
2019-03-31T17:55:42.946Z,59.50
2019-03-31T18:00:46.865Z,60.20
2019-03-31T18:05:53.188Z,60.50
2019-03-31T18:10:57.253Z,61.00
2019-03-31T18:16:01.128Z,61.40
2019-03-31T18:21:05.262Z,61.60
2019-03-31T18:26:09.866Z,61.50
2019-03-31T18:31:14.012Z,61.10
2019-03-31T18:36:18.533Z,61.80
2019-03-31T18:41:22.866Z,62.10
2019-03-31T18:46:58.671Z,62.10
2019-03-31T18:52:04.682Z,62.30
2019-03-31T18:57:33.749Z,62.40
2019-03-31T19:02:49.321Z,62.60
2019-03-31T19:08:13.649Z,62.70
2019-03-31T19:13:55.182Z,63.40
2019-03-31T19:19:13.561Z,63.30
2019-03-31T19:24:29.747Z,64.10
2019-03-31T19:29:57.276Z,64.60
2019-03-31T19:35:33.137Z,65.10
2019-03-31T19:41:03.971Z,65.50
2019-03-31T19:46:23.528Z,66.10
2019-03-31T19:51:58.493Z,66.50
2019-03-31T19:57:25.148Z,67.60
2019-03-31T20:02:35.275Z,68.30
2019-03-31T20:07:59.323Z,68.50
2019-03-31T20:13:31.591Z,68.60
2019-03-31T20:18:46.412Z,70.30
2019-03-31T20:24:19.368Z,70.40
2019-03-31T20:29:32.094Z,70.60
2019-03-31T20:34:55.053Z,69.80
2019-03-31T20:40:10.107Z,69.30
2019-03-31T20:45:14.693Z,68.90
2019-03-31T20:50:17.579Z,69.00
2019-03-31T20:55:21.500Z,68.80
2019-03-31T21:00:25.240Z,69.00
2019-03-31T21:05:29.503Z,69.40
2019-03-31T21:10:35.263Z,69.40
2019-03-31T21:15:39.366Z,69.90
2019-03-31T21:20:43.159Z,69.80
2019-03-31T21:25:46.914Z,69.50
2019-03-31T21:30:50.685Z,69.80
2019-03-31T21:35:54.468Z,69.10
2019-03-31T21:41:08.431Z,69.40
2019-03-31T21:46:12.613Z,70.00
2019-03-31T21:51:16.470Z,70.50
2019-03-31T21:56:20.855Z,71.30
2019-03-31T22:01:24.726Z,72.00
2019-03-31T22:06:28.456Z,72.90
2019-03-31T22:11:32.724Z,73.40
2019-03-31T22:16:36.796Z,73.00
2019-03-31T22:21:40.866Z,74.10
2019-03-31T22:26:44.676Z,74.50
2019-03-31T22:31:48.475Z,74.10
2019-03-31T22:36:52.270Z,75.20
2019-03-31T22:41:56.539Z,73.80
2019-03-31T22:47:00.346Z,75.20
2019-03-31T22:52:04.099Z,74.70
2019-03-31T22:57:08.135Z,75.60
2019-03-31T23:02:13.307Z,75.50
2019-03-31T23:07:17.337Z,76.40
2019-03-31T23:12:21.221Z,78.00
2019-03-31T23:17:25.329Z,76.90
2019-03-31T23:22:29.382Z,76.90
2019-03-31T23:27:34.766Z,76.90
2019-03-31T23:32:41.564Z,78.90
2019-03-31T23:37:45.567Z,78.70
2019-03-31T23:42:49.352Z,78.30
2019-03-31T23:47:54.990Z,77.60
2019-03-31T23:52:59.379Z,78.40
2019-03-31T23:58:03.185Z,78.60
